sensor_id;sensor_type;location;lat;lon;timestamp;P1;durP1;ratioP1;P2;durP2;ratioP2
36189;SDS011;22232;50.914;13.858;2023-05-10T00:02:17;5.18;;;2.63;;
36189;SDS011;22232;50.914;13.858;2023-05-10T00:04:45;7.47;;;2.85;;
36189;SDS011;22232;50.914;13.858;2023-05-10T00:07:12;4.03;;;3.05;;
36189;SDS011;22232;50.914;13.858;2023-05-10T00:09:40;6.15;;;2.60;;
36189;SDS011;22232;50.914;13.858;2023-05-10T00:12:08;3.85;;;2.38;;
36189;SDS011;22232;50.914;13.858;2023-05-10T00:14:35;6.72;;;2.60;;
36189;SDS011;22232;50.914;13.858;2023-05-10T00:17:03;4.65;;;2.45;;
36189;SDS011;22232;50.914;13.858;2023-05-10T00:19:30;5.30;;;2.17;;
36189;SDS011;22232;50.914;13.858;2023-05-10T00:21:58;3.67;;;2.67;;
36189;SDS011;22232;50.914;13.858;2023-05-10T00:24:25;5.85;;;2.83;;
36189;SDS011;22232;50.914;13.858;2023-05-10T00:26:53;2.85;;;2.10;;
36189;SDS011;22232;50.914;13.858;2023-05-10T00:29:20;3.70;;;2.35;;
36189;SDS011;22232;50.914;13.858;2023-05-10T00:31:48;4.40;;;2.33;;
36189;SDS011;22232;50.914;13.858;2023-05-10T00:34:15;2.78;;;2.33;;
36189;SDS011;22232;50.914;13.858;2023-05-10T00:36:44;3.45;;;2.22;;
36189;SDS011;22232;50.914;13.858;2023-05-10T00:39:11;4.43;;;2.50;;
36189;SDS011;22232;50.914;13.858;2023-05-10T00:41:39;7.82;;;2.90;;
36189;SDS011;22232;50.914;13.858;2023-05-10T00:44:07;4.60;;;2.42;;
36189;SDS011;22232;50.914;13.858;2023-05-10T00:46:35;3.53;;;2.58;;
36189;SDS011;22232;50.914;13.858;2023-05-10T00:49:03;4.97;;;2.75;;
36189;SDS011;22232;50.914;13.858;2023-05-10T00:51:31;2.50;;;2.15;;
36189;SDS011;22232;50.914;13.858;2023-05-10T00:53:59;3.20;;;2.30;;
36189;SDS011;22232;50.914;13.858;2023-05-10T00:56:27;5.93;;;2.50;;
36189;SDS011;22232;50.914;13.858;2023-05-10T00:58:56;3.97;;;2.33;;
36189;SDS011;22232;50.914;13.858;2023-05-10T01:01:24;4.15;;;2.20;;
36189;SDS011;22232;50.914;13.858;2023-05-10T01:03:52;4.07;;;2.08;;
36189;SDS011;22232;50.914;13.858;2023-05-10T01:06:21;3.08;;;2.38;;
36189;SDS011;22232;50.914;13.858;2023-05-10T01:08:49;5.03;;;2.55;;
36189;SDS011;22232;50.914;13.858;2023-05-10T01:11:17;4.88;;;2.53;;
36189;SDS011;22232;50.914;13.858;2023-05-10T01:13:45;3.60;;;1.98;;
36189;SDS011;22232;50.914;13.858;2023-05-10T01:18:47;4.15;;;2.35;;
36189;SDS011;22232;50.914;13.858;2023-05-10T01:29:18;6.22;;;2.35;;
36189;SDS011;22232;50.914;13.858;2023-05-10T01:34:52;3.22;;;2.47;;
36189;SDS011;22232;50.914;13.858;2023-05-10T01:37:29;3.92;;;2.45;;
36189;SDS011;22232;50.914;13.858;2023-05-10T01:40:23;3.03;;;2.20;;
36189;SDS011;22232;50.914;13.858;2023-05-10T01:43:17;3.28;;;2.35;;
36189;SDS011;22232;50.914;13.858;2023-05-10T01:46:02;4.78;;;2.50;;
36189;SDS011;22232;50.914;13.858;2023-05-10T01:48:39;6.85;;;2.55;;
36189;SDS011;22232;50.914;13.858;2023-05-10T01:51:17;4.93;;;2.80;;
36189;SDS011;22232;50.914;13.858;2023-05-10T01:53:50;5.90;;;2.30;;
36189;SDS011;22232;50.914;13.858;2023-05-10T01:56:22;3.47;;;2.40;;
36189;SDS011;22232;50.914;13.858;2023-05-10T01:58:53;3.67;;;2.40;;
36189;SDS011;22232;50.914;13.858;2023-05-10T02:01:22;3.88;;;2.38;;
36189;SDS011;22232;50.914;13.858;2023-05-10T02:03:53;3.45;;;2.25;;
36189;SDS011;22232;50.914;13.858;2023-05-10T02:06:22;7.15;;;2.85;;
36189;SDS011;22232;50.914;13.858;2023-05-10T02:08:52;3.20;;;2.55;;
36189;SDS011;22232;50.914;13.858;2023-05-10T02:11:20;4.68;;;2.63;;
36189;SDS011;22232;50.914;13.858;2023-05-10T02:13:50;6.35;;;3.22;;
36189;SDS011;22232;50.914;13.858;2023-05-10T02:16:24;3.45;;;2.20;;
36189;SDS011;22232;50.914;13.858;2023-05-10T02:18:55;4.90;;;2.25;;
36189;SDS011;22232;50.914;13.858;2023-05-10T02:21:26;3.30;;;2.20;;
36189;SDS011;22232;50.914;13.858;2023-05-10T02:23:56;4.10;;;2.35;;
36189;SDS011;22232;50.914;13.858;2023-05-10T02:26:25;4.65;;;2.53;;
36189;SDS011;22232;50.914;13.858;2023-05-10T02:28:57;3.70;;;2.55;;
36189;SDS011;22232;50.914;13.858;2023-05-10T02:31:27;3.55;;;2.40;;
36189;SDS011;22232;50.914;13.858;2023-05-10T02:33:55;4.45;;;2.33;;
36189;SDS011;22232;50.914;13.858;2023-05-10T02:36:24;3.60;;;2.78;;
36189;SDS011;22232;50.914;13.858;2023-05-10T02:38:54;5.18;;;2.40;;
36189;SDS011;22232;50.914;13.858;2023-05-10T02:41:23;2.75;;;2.20;;
36189;SDS011;22232;50.914;13.858;2023-05-10T02:43:54;6.30;;;2.70;;
36189;SDS011;22232;50.914;13.858;2023-05-10T02:46:24;3.13;;;2.53;;
36189;SDS011;22232;50.914;13.858;2023-05-10T02:48:52;5.72;;;2.80;;
36189;SDS011;22232;50.914;13.858;2023-05-10T02:51:20;3.38;;;2.30;;
36189;SDS011;22232;50.914;13.858;2023-05-10T02:53:52;4.25;;;2.67;;
36189;SDS011;22232;50.914;13.858;2023-05-10T02:56:23;5.20;;;2.47;;
36189;SDS011;22232;50.914;13.858;2023-05-10T02:58:55;3.47;;;2.40;;
36189;SDS011;22232;50.914;13.858;2023-05-10T03:01:23;6.78;;;2.72;;
36189;SDS011;22232;50.914;13.858;2023-05-10T03:03:51;4.65;;;2.63;;
36189;SDS011;22232;50.914;13.858;2023-05-10T03:06:18;3.10;;;2.30;;
36189;SDS011;22232;50.914;13.858;2023-05-10T03:08:46;5.25;;;2.63;;
36189;SDS011;22232;50.914;13.858;2023-05-10T03:14:56;5.63;;;2.25;;
36189;SDS011;22232;50.914;13.858;2023-05-10T03:19:58;3.85;;;2.50;;
36189;SDS011;22232;50.914;13.858;2023-05-10T03:22:55;4.55;;;2.78;;
36189;SDS011;22232;50.914;13.858;2023-05-10T03:25:28;3.22;;;2.53;;
36189;SDS011;22232;50.914;13.858;2023-05-10T03:27:58;3.13;;;2.53;;
36189;SDS011;22232;50.914;13.858;2023-05-10T03:30:28;3.67;;;2.45;;
36189;SDS011;22232;50.914;13.858;2023-05-10T03:32:57;5.65;;;2.65;;
36189;SDS011;22232;50.914;13.858;2023-05-10T03:35:25;3.90;;;2.25;;
36189;SDS011;22232;50.914;13.858;2023-05-10T03:37:52;5.47;;;2.88;;
36189;SDS011;22232;50.914;13.858;2023-05-10T03:40:20;5.45;;;2.80;;
36189;SDS011;22232;50.914;13.858;2023-05-10T03:42:47;5.95;;;2.33;;
36189;SDS011;22232;50.914;13.858;2023-05-10T03:45:15;5.95;;;3.13;;
36189;SDS011;22232;50.914;13.858;2023-05-10T03:47:43;3.72;;;2.50;;
36189;SDS011;22232;50.914;13.858;2023-05-10T03:50:11;2.97;;;2.30;;
36189;SDS011;22232;50.914;13.858;2023-05-10T03:52:38;3.63;;;2.60;;
36189;SDS011;22232;50.914;13.858;2023-05-10T03:55:06;2.88;;;2.33;;
36189;SDS011;22232;50.914;13.858;2023-05-10T03:57:34;10.70;;;2.45;;
36189;SDS011;22232;50.914;13.858;2023-05-10T04:00:03;5.03;;;2.30;;
36189;SDS011;22232;50.914;13.858;2023-05-10T04:02:40;6.40;;;2.28;;
36189;SDS011;22232;50.914;13.858;2023-05-10T04:05:11;4.78;;;2.20;;
36189;SDS011;22232;50.914;13.858;2023-05-10T04:07:40;3.13;;;2.08;;
36189;SDS011;22232;50.914;13.858;2023-05-10T04:10:08;2.90;;;1.77;;
36189;SDS011;22232;50.914;13.858;2023-05-10T04:12:36;3.83;;;1.90;;
36189;SDS011;22232;50.914;13.858;2023-05-10T04:15:03;3.17;;;2.20;;
36189;SDS011;22232;50.914;13.858;2023-05-10T04:17:31;2.72;;;1.88;;
36189;SDS011;22232;50.914;13.858;2023-05-10T04:19:58;2.25;;;1.90;;
36189;SDS011;22232;50.914;13.858;2023-05-10T04:22:26;3.55;;;2.15;;
36189;SDS011;22232;50.914;13.858;2023-05-10T04:24:54;5.50;;;2.13;;
36189;SDS011;22232;50.914;13.858;2023-05-10T04:27:22;4.30;;;2.03;;
36189;SDS011;22232;50.914;13.858;2023-05-10T04:29:49;5.03;;;2.58;;
36189;SDS011;22232;50.914;13.858;2023-05-10T04:32:17;4.45;;;2.10;;
36189;SDS011;22232;50.914;13.858;2023-05-10T04:34:46;3.72;;;2.30;;
36189;SDS011;22232;50.914;13.858;2023-05-10T04:37:14;2.53;;;1.90;;
36189;SDS011;22232;50.914;13.858;2023-05-10T04:39:42;4.88;;;2.20;;
36189;SDS011;22232;50.914;13.858;2023-05-10T04:42:09;4.88;;;2.00;;
36189;SDS011;22232;50.914;13.858;2023-05-10T04:44:37;3.55;;;2.15;;
36189;SDS011;22232;50.914;13.858;2023-05-10T04:47:04;2.30;;;2.10;;
36189;SDS011;22232;50.914;13.858;2023-05-10T04:49:32;3.15;;;2.28;;
36189;SDS011;22232;50.914;13.858;2023-05-10T04:51:59;4.20;;;2.15;;
36189;SDS011;22232;50.914;13.858;2023-05-10T04:54:27;3.17;;;2.05;;
36189;SDS011;22232;50.914;13.858;2023-05-10T04:56:54;4.65;;;2.17;;
36189;SDS011;22232;50.914;13.858;2023-05-10T04:59:22;4.20;;;2.05;;
36189;SDS011;22232;50.914;13.858;2023-05-10T05:01:49;3.20;;;2.00;;
36189;SDS011;22232;50.914;13.858;2023-05-10T05:04:17;6.03;;;2.20;;
36189;SDS011;22232;50.914;13.858;2023-05-10T05:06:44;4.28;;;2.17;;
36189;SDS011;22232;50.914;13.858;2023-05-10T05:09:12;4.28;;;2.05;;
36189;SDS011;22232;50.914;13.858;2023-05-10T05:11:39;3.03;;;2.13;;
36189;SDS011;22232;50.914;13.858;2023-05-10T05:14:07;3.63;;;2.13;;
36189;SDS011;22232;50.914;13.858;2023-05-10T05:16:35;8.05;;;2.40;;
36189;SDS011;22232;50.914;13.858;2023-05-10T05:19:02;7.60;;;2.00;;
36189;SDS011;22232;50.914;13.858;2023-05-10T05:21:30;3.83;;;1.95;;
36189;SDS011;22232;50.914;13.858;2023-05-10T05:23:59;4.35;;;2.10;;
36189;SDS011;22232;50.914;13.858;2023-05-10T05:26:27;3.05;;;2.22;;
36189;SDS011;22232;50.914;13.858;2023-05-10T05:28:54;1.70;;;1.60;;
36189;SDS011;22232;50.914;13.858;2023-05-10T05:31:22;3.20;;;1.95;;
36189;SDS011;22232;50.914;13.858;2023-05-10T05:33:49;7.30;;;2.10;;
36189;SDS011;22232;50.914;13.858;2023-05-10T05:36:17;6.72;;;2.30;;
36189;SDS011;22232;50.914;13.858;2023-05-10T05:38:44;2.95;;;2.03;;
36189;SDS011;22232;50.914;13.858;2023-05-10T05:41:12;2.60;;;2.15;;
36189;SDS011;22232;50.914;13.858;2023-05-10T05:43:39;5.25;;;1.98;;
36189;SDS011;22232;50.914;13.858;2023-05-10T05:46:07;6.45;;;2.38;;
36189;SDS011;22232;50.914;13.858;2023-05-10T05:48:35;4.03;;;2.25;;
36189;SDS011;22232;50.914;13.858;2023-05-10T05:51:02;5.07;;;2.08;;
36189;SDS011;22232;50.914;13.858;2023-05-10T05:53:33;5.05;;;2.67;;
36189;SDS011;22232;50.914;13.858;2023-05-10T05:56:00;3.78;;;2.10;;
36189;SDS011;22232;50.914;13.858;2023-05-10T05:58:28;2.45;;;2.20;;
36189;SDS011;22232;50.914;13.858;2023-05-10T06:00:56;3.92;;;2.70;;
36189;SDS011;22232;50.914;13.858;2023-05-10T06:03:24;4.25;;;2.10;;
36189;SDS011;22232;50.914;13.858;2023-05-10T06:05:52;6.28;;;2.80;;
36189;SDS011;22232;50.914;13.858;2023-05-10T06:08:19;4.32;;;2.35;;
36189;SDS011;22232;50.914;13.858;2023-05-10T06:10:47;4.00;;;2.45;;
36189;SDS011;22232;50.914;13.858;2023-05-10T06:13:15;4.25;;;2.00;;
36189;SDS011;22232;50.914;13.858;2023-05-10T06:15:42;5.90;;;2.60;;
36189;SDS011;22232;50.914;13.858;2023-05-10T06:18:10;3.20;;;2.00;;
36189;SDS011;22232;50.914;13.858;2023-05-10T06:20:37;3.78;;;1.90;;
36189;SDS011;22232;50.914;13.858;2023-05-10T06:23:05;4.55;;;2.15;;
36189;SDS011;22232;50.914;13.858;2023-05-10T06:25:32;5.13;;;2.50;;
36189;SDS011;22232;50.914;13.858;2023-05-10T06:28:00;2.67;;;2.15;;
36189;SDS011;22232;50.914;13.858;2023-05-10T06:30:27;2.20;;;2.00;;
36189;SDS011;22232;50.914;13.858;2023-05-10T06:32:56;4.05;;;2.42;;
36189;SDS011;22232;50.914;13.858;2023-05-10T06:35:24;3.35;;;2.47;;
36189;SDS011;22232;50.914;13.858;2023-05-10T06:37:52;3.30;;;2.47;;
36189;SDS011;22232;50.914;13.858;2023-05-10T06:40:19;4.93;;;2.40;;
36189;SDS011;22232;50.914;13.858;2023-05-10T06:42:47;4.35;;;2.60;;
36189;SDS011;22232;50.914;13.858;2023-05-10T06:45:15;4.28;;;2.78;;
36189;SDS011;22232;50.914;13.858;2023-05-10T06:47:43;3.08;;;2.40;;
36189;SDS011;22232;50.914;13.858;2023-05-10T06:50:11;2.65;;;2.20;;
36189;SDS011;22232;50.914;13.858;2023-05-10T06:52:39;4.15;;;2.45;;
36189;SDS011;22232;50.914;13.858;2023-05-10T06:55:07;6.05;;;2.35;;
36189;SDS011;22232;50.914;13.858;2023-05-10T06:57:35;5.30;;;2.55;;
36189;SDS011;22232;50.914;13.858;2023-05-10T07:00:03;5.18;;;2.90;;
36189;SDS011;22232;50.914;13.858;2023-05-10T07:02:32;3.50;;;2.17;;
36189;SDS011;22232;50.914;13.858;2023-05-10T07:04:59;4.63;;;2.45;;
36189;SDS011;22232;50.914;13.858;2023-05-10T07:07:29;4.55;;;2.70;;
36189;SDS011;22232;50.914;13.858;2023-05-10T07:09:57;3.97;;;2.58;;
36189;SDS011;22232;50.914;13.858;2023-05-10T07:12:25;4.07;;;2.50;;
36189;SDS011;22232;50.914;13.858;2023-05-10T07:14:52;3.92;;;2.30;;
36189;SDS011;22232;50.914;13.858;2023-05-10T07:17:20;3.65;;;2.30;;
36189;SDS011;22232;50.914;13.858;2023-05-10T07:19:47;7.30;;;2.63;;
36189;SDS011;22232;50.914;13.858;2023-05-10T07:22:15;3.88;;;2.85;;
36189;SDS011;22232;50.914;13.858;2023-05-10T07:24:43;6.45;;;2.85;;
36189;SDS011;22232;50.914;13.858;2023-05-10T07:27:11;4.47;;;2.70;;
36189;SDS011;22232;50.914;13.858;2023-05-10T07:29:40;4.32;;;3.13;;
36189;SDS011;22232;50.914;13.858;2023-05-10T07:32:07;4.15;;;2.80;;
36189;SDS011;22232;50.914;13.858;2023-05-10T07:34:35;4.00;;;2.47;;
36189;SDS011;22232;50.914;13.858;2023-05-10T07:37:03;4.70;;;2.95;;
36189;SDS011;22232;50.914;13.858;2023-05-10T07:39:30;4.03;;;2.65;;
36189;SDS011;22232;50.914;13.858;2023-05-10T07:41:58;3.25;;;2.72;;
36189;SDS011;22232;50.914;13.858;2023-05-10T07:44:25;5.38;;;2.97;;
36189;SDS011;22232;50.914;13.858;2023-05-10T07:46:53;5.43;;;2.65;;
36189;SDS011;22232;50.914;13.858;2023-05-10T07:49:20;6.03;;;3.10;;
36189;SDS011;22232;50.914;13.858;2023-05-10T07:51:51;3.45;;;2.80;;
36189;SDS011;22232;50.914;13.858;2023-05-10T07:54:19;3.58;;;2.75;;
36189;SDS011;22232;50.914;13.858;2023-05-10T07:56:46;6.00;;;3.38;;
36189;SDS011;22232;50.914;13.858;2023-05-10T07:59:15;4.55;;;2.65;;
36189;SDS011;22232;50.914;13.858;2023-05-10T08:01:44;6.70;;;2.78;;
36189;SDS011;22232;50.914;13.858;2023-05-10T08:04:12;3.20;;;2.80;;
36189;SDS011;22232;50.914;13.858;2023-05-10T08:06:40;5.43;;;3.17;;
36189;SDS011;22232;50.914;13.858;2023-05-10T08:09:08;6.15;;;2.95;;
36189;SDS011;22232;50.914;13.858;2023-05-10T08:11:35;5.25;;;3.13;;
36189;SDS011;22232;50.914;13.858;2023-05-10T08:14:03;5.95;;;2.95;;
36189;SDS011;22232;50.914;13.858;2023-05-10T08:20:38;6.18;;;2.75;;
36189;SDS011;22232;50.914;13.858;2023-05-10T08:23:05;3.50;;;2.85;;
36189;SDS011;22232;50.914;13.858;2023-05-10T08:25:33;3.72;;;2.88;;
36189;SDS011;22232;50.914;13.858;2023-05-10T08:28:00;5.00;;;3.35;;
36189;SDS011;22232;50.914;13.858;2023-05-10T08:30:28;4.05;;;2.72;;
36189;SDS011;22232;50.914;13.858;2023-05-10T08:32:55;3.30;;;2.80;;
36189;SDS011;22232;50.914;13.858;2023-05-10T08:35:23;7.25;;;3.03;;
36189;SDS011;22232;50.914;13.858;2023-05-10T08:37:51;4.53;;;2.97;;
36189;SDS011;22232;50.914;13.858;2023-05-10T08:40:19;5.22;;;3.33;;
36189;SDS011;22232;50.914;13.858;2023-05-10T08:43:00;5.63;;;3.08;;
36189;SDS011;22232;50.914;13.858;2023-05-10T08:45:33;5.63;;;3.10;;
36189;SDS011;22232;50.914;13.858;2023-05-10T08:48:05;5.20;;;3.15;;
36189;SDS011;22232;50.914;13.858;2023-05-10T08:50:38;5.22;;;3.10;;
36189;SDS011;22232;50.914;13.858;2023-05-10T08:53:09;3.72;;;2.83;;
36189;SDS011;22232;50.914;13.858;2023-05-10T08:55:38;7.10;;;3.40;;
36189;SDS011;22232;50.914;13.858;2023-05-10T08:58:07;5.13;;;3.20;;
36189;SDS011;22232;50.914;13.858;2023-05-10T09:00:36;3.83;;;2.83;;
36189;SDS011;22232;50.914;13.858;2023-05-10T09:03:06;4.72;;;3.45;;
36189;SDS011;22232;50.914;13.858;2023-05-10T09:05:34;7.40;;;3.60;;
36189;SDS011;22232;50.914;13.858;2023-05-10T09:08:03;6.28;;;3.90;;
36189;SDS011;22232;50.914;13.858;2023-05-10T09:10:31;4.97;;;3.33;;
36189;SDS011;22232;50.914;13.858;2023-05-10T09:12:59;4.07;;;2.88;;
36189;SDS011;22232;50.914;13.858;2023-05-10T09:15:27;6.43;;;3.40;;
36189;SDS011;22232;50.914;13.858;2023-05-10T09:17:54;4.47;;;2.85;;
36189;SDS011;22232;50.914;13.858;2023-05-10T09:20:23;4.70;;;3.80;;
36189;SDS011;22232;50.914;13.858;2023-05-10T09:22:51;4.40;;;3.40;;
36189;SDS011;22232;50.914;13.858;2023-05-10T09:25:19;3.30;;;3.00;;
36189;SDS011;22232;50.914;13.858;2023-05-10T09:27:47;6.22;;;3.50;;
36189;SDS011;22232;50.914;13.858;2023-05-10T09:30:16;6.40;;;3.85;;
36189;SDS011;22232;50.914;13.858;2023-05-10T09:32:50;3.90;;;2.97;;
36189;SDS011;22232;50.914;13.858;2023-05-10T09:35:19;7.50;;;3.58;;
36189;SDS011;22232;50.914;13.858;2023-05-10T09:37:52;8.02;;;3.63;;
36189;SDS011;22232;50.914;13.858;2023-05-10T09:40:24;5.80;;;3.40;;
36189;SDS011;22232;50.914;13.858;2023-05-10T09:43:02;3.90;;;3.35;;
36189;SDS011;22232;50.914;13.858;2023-05-10T09:45:34;5.38;;;3.92;;
36189;SDS011;22232;50.914;13.858;2023-05-10T09:48:05;6.60;;;3.80;;
36189;SDS011;22232;50.914;13.858;2023-05-10T09:50:33;5.57;;;3.72;;
36189;SDS011;22232;50.914;13.858;2023-05-10T09:53:02;4.22;;;3.80;;
36189;SDS011;22232;50.914;13.858;2023-05-10T09:55:41;6.60;;;3.95;;
36189;SDS011;22232;50.914;13.858;2023-05-10T09:58:15;6.10;;;3.67;;
36189;SDS011;22232;50.914;13.858;2023-05-10T10:00:43;7.07;;;3.38;;
36189;SDS011;22232;50.914;13.858;2023-05-10T10:03:16;12.10;;;3.97;;
36189;SDS011;22232;50.914;13.858;2023-05-10T10:05:46;6.95;;;3.45;;
36189;SDS011;22232;50.914;13.858;2023-05-10T10:08:15;4.63;;;3.85;;
36189;SDS011;22232;50.914;13.858;2023-05-10T10:10:43;6.80;;;3.97;;
36189;SDS011;22232;50.914;13.858;2023-05-10T10:13:13;4.28;;;3.30;;
36189;SDS011;22232;50.914;13.858;2023-05-10T10:15:41;5.18;;;3.50;;
36189;SDS011;22232;50.914;13.858;2023-05-10T10:18:13;4.68;;;3.55;;
36189;SDS011;22232;50.914;13.858;2023-05-10T10:20:42;6.35;;;3.72;;
36189;SDS011;22232;50.914;13.858;2023-05-10T10:23:10;6.72;;;4.03;;
36189;SDS011;22232;50.914;13.858;2023-05-10T10:25:37;7.28;;;3.35;;
36189;SDS011;22232;50.914;13.858;2023-05-10T10:28:12;4.13;;;3.50;;
36189;SDS011;22232;50.914;13.858;2023-05-10T10:30:43;5.15;;;4.13;;
36189;SDS011;22232;50.914;13.858;2023-05-10T10:36:07;10.68;;;4.00;;
36189;SDS011;22232;50.914;13.858;2023-05-10T10:38:54;7.40;;;4.07;;
36189;SDS011;22232;50.914;13.858;2023-05-10T10:41:30;8.35;;;3.67;;
36189;SDS011;22232;50.914;13.858;2023-05-10T10:52:30;5.50;;;4.05;;
36189;SDS011;22232;50.914;13.858;2023-05-10T11:00:28;4.45;;;3.50;;
36189;SDS011;22232;50.914;13.858;2023-05-10T11:03:06;5.03;;;3.33;;
36189;SDS011;22232;50.914;13.858;2023-05-10T11:05:37;5.70;;;3.72;;
36189;SDS011;22232;50.914;13.858;2023-05-10T11:08:16;7.72;;;4.10;;
36189;SDS011;22232;50.914;13.858;2023-05-10T11:10:50;5.90;;;3.92;;
36189;SDS011;22232;50.914;13.858;2023-05-10T11:13:28;4.30;;;3.50;;
36189;SDS011;22232;50.914;13.858;2023-05-10T11:16:26;4.63;;;3.50;;
36189;SDS011;22232;50.914;13.858;2023-05-10T11:21:33;5.57;;;3.63;;
36189;SDS011;22232;50.914;13.858;2023-05-10T11:24:15;9.20;;;3.92;;
36189;SDS011;22232;50.914;13.858;2023-05-10T11:26:44;5.38;;;3.58;;
36189;SDS011;22232;50.914;13.858;2023-05-10T11:29:15;6.80;;;3.95;;
36189;SDS011;22232;50.914;13.858;2023-05-10T11:31:43;6.45;;;3.58;;
36189;SDS011;22232;50.914;13.858;2023-05-10T11:34:33;5.82;;;3.58;;
36189;SDS011;22232;50.914;13.858;2023-05-10T11:37:00;5.82;;;4.13;;
36189;SDS011;22232;50.914;13.858;2023-05-10T11:39:29;5.13;;;4.00;;
36189;SDS011;22232;50.914;13.858;2023-05-10T11:41:57;5.53;;;4.05;;
36189;SDS011;22232;50.914;13.858;2023-05-10T11:44:29;8.23;;;4.38;;
36189;SDS011;22232;50.914;13.858;2023-05-10T11:46:59;6.65;;;3.88;;
36189;SDS011;22232;50.914;13.858;2023-05-10T11:49:27;6.15;;;3.53;;
36189;SDS011;22232;50.914;13.858;2023-05-10T11:52:05;5.78;;;3.00;;
36189;SDS011;22232;50.914;13.858;2023-05-10T11:54:34;6.03;;;3.70;;
36189;SDS011;22232;50.914;13.858;2023-05-10T11:57:04;8.60;;;3.50;;
36189;SDS011;22232;50.914;13.858;2023-05-10T11:59:32;4.03;;;2.95;;
36189;SDS011;22232;50.914;13.858;2023-05-10T12:01:59;6.93;;;3.97;;
36189;SDS011;22232;50.914;13.858;2023-05-10T12:04:27;6.60;;;4.07;;
36189;SDS011;22232;50.914;13.858;2023-05-10T12:06:56;5.80;;;3.20;;
36189;SDS011;22232;50.914;13.858;2023-05-10T12:09:24;4.88;;;3.65;;
36189;SDS011;22232;50.914;13.858;2023-05-10T12:12:08;4.95;;;3.75;;
36189;SDS011;22232;50.914;13.858;2023-05-10T12:14:36;4.95;;;3.03;;
36189;SDS011;22232;50.914;13.858;2023-05-10T12:17:04;4.75;;;3.60;;
36189;SDS011;22232;50.914;13.858;2023-05-10T12:19:38;4.10;;;3.55;;
36189;SDS011;22232;50.914;13.858;2023-05-10T12:22:06;5.40;;;3.60;;
36189;SDS011;22232;50.914;13.858;2023-05-10T12:24:34;4.25;;;3.40;;
36189;SDS011;22232;50.914;13.858;2023-05-10T12:27:06;5.40;;;3.90;;
36189;SDS011;22232;50.914;13.858;2023-05-10T12:29:35;5.38;;;3.72;;
36189;SDS011;22232;50.914;13.858;2023-05-10T12:32:03;4.85;;;3.67;;
36189;SDS011;22232;50.914;13.858;2023-05-10T12:34:32;5.97;;;3.33;;
36189;SDS011;22232;50.914;13.858;2023-05-10T12:37:04;5.00;;;3.25;;
36189;SDS011;22232;50.914;13.858;2023-05-10T12:39:41;9.75;;;4.55;;
36189;SDS011;22232;50.914;13.858;2023-05-10T12:42:10;7.20;;;3.80;;
36189;SDS011;22232;50.914;13.858;2023-05-10T12:44:38;4.13;;;2.88;;
36189;SDS011;22232;50.914;13.858;2023-05-10T12:47:07;6.35;;;3.75;;
36189;SDS011;22232;50.914;13.858;2023-05-10T12:49:34;3.35;;;3.05;;
36189;SDS011;22232;50.914;13.858;2023-05-10T12:52:02;4.93;;;3.42;;
36189;SDS011;22232;50.914;13.858;2023-05-10T12:54:30;5.20;;;3.30;;
36189;SDS011;22232;50.914;13.858;2023-05-10T12:56:57;5.22;;;3.00;;
36189;SDS011;22232;50.914;13.858;2023-05-10T12:59:25;5.70;;;3.25;;
36189;SDS011;22232;50.914;13.858;2023-05-10T13:01:52;4.95;;;3.03;;
36189;SDS011;22232;50.914;13.858;2023-05-10T13:04:20;8.90;;;3.92;;
36189;SDS011;22232;50.914;13.858;2023-05-10T13:06:48;4.07;;;3.10;;
36189;SDS011;22232;50.914;13.858;2023-05-10T13:09:15;4.70;;;2.97;;
36189;SDS011;22232;50.914;13.858;2023-05-10T13:11:43;4.00;;;2.95;;
36189;SDS011;22232;50.914;13.858;2023-05-10T13:14:10;6.05;;;2.88;;
36189;SDS011;22232;50.914;13.858;2023-05-10T13:16:38;5.30;;;3.08;;
36189;SDS011;22232;50.914;13.858;2023-05-10T13:19:05;6.03;;;3.10;;
36189;SDS011;22232;50.914;13.858;2023-05-10T13:21:33;4.60;;;3.35;;
36189;SDS011;22232;50.914;13.858;2023-05-10T13:24:00;6.13;;;3.42;;
36189;SDS011;22232;50.914;13.858;2023-05-10T13:26:28;4.15;;;3.60;;
36189;SDS011;22232;50.914;13.858;2023-05-10T13:28:56;4.40;;;3.38;;
36189;SDS011;22232;50.914;13.858;2023-05-10T13:31:24;5.90;;;3.53;;
36189;SDS011;22232;50.914;13.858;2023-05-10T13:33:52;7.72;;;3.42;;
36189;SDS011;22232;50.914;13.858;2023-05-10T13:36:19;5.32;;;3.25;;
36189;SDS011;22232;50.914;13.858;2023-05-10T13:38:47;6.47;;;3.20;;
36189;SDS011;22232;50.914;13.858;2023-05-10T13:41:14;4.80;;;3.33;;
36189;SDS011;22232;50.914;13.858;2023-05-10T13:43:42;4.43;;;2.97;;
36189;SDS011;22232;50.914;13.858;2023-05-10T13:46:10;4.22;;;3.03;;
36189;SDS011;22232;50.914;13.858;2023-05-10T13:48:37;10.45;;;3.75;;
36189;SDS011;22232;50.914;13.858;2023-05-10T13:51:05;3.45;;;3.00;;
36189;SDS011;22232;50.914;13.858;2023-05-10T13:53:32;3.90;;;2.80;;
36189;SDS011;22232;50.914;13.858;2023-05-10T13:56:00;3.72;;;2.65;;
36189;SDS011;22232;50.914;13.858;2023-05-10T13:58:29;3.45;;;2.78;;
36189;SDS011;22232;50.914;13.858;2023-05-10T14:00:56;3.17;;;2.88;;
36189;SDS011;22232;50.914;13.858;2023-05-10T14:03:24;6.90;;;3.20;;
36189;SDS011;22232;50.914;13.858;2023-05-10T14:05:52;4.88;;;3.03;;
36189;SDS011;22232;50.914;13.858;2023-05-10T14:08:19;3.47;;;2.80;;
36189;SDS011;22232;50.914;13.858;2023-05-10T14:10:47;4.13;;;2.95;;
36189;SDS011;22232;50.914;13.858;2023-05-10T14:13:15;3.70;;;2.70;;
36189;SDS011;22232;50.914;13.858;2023-05-10T14:15:43;5.05;;;3.30;;
36189;SDS011;22232;50.914;13.858;2023-05-10T14:18:11;6.97;;;3.45;;
36189;SDS011;22232;50.914;13.858;2023-05-10T14:20:38;7.13;;;2.95;;
36189;SDS011;22232;50.914;13.858;2023-05-10T14:23:06;4.05;;;3.10;;
36189;SDS011;22232;50.914;13.858;2023-05-10T14:25:38;3.30;;;2.60;;
36189;SDS011;22232;50.914;13.858;2023-05-10T14:28:07;5.65;;;3.38;;
36189;SDS011;22232;50.914;13.858;2023-05-10T14:30:35;10.63;;;3.00;;
36189;SDS011;22232;50.914;13.858;2023-05-10T14:33:02;5.07;;;3.22;;
36189;SDS011;22232;50.914;13.858;2023-05-10T14:35:30;4.28;;;3.13;;
36189;SDS011;22232;50.914;13.858;2023-05-10T14:38:01;5.63;;;3.58;;
36189;SDS011;22232;50.914;13.858;2023-05-10T14:40:29;5.13;;;3.20;;
36189;SDS011;22232;50.914;13.858;2023-05-10T14:42:57;5.13;;;3.22;;
36189;SDS011;22232;50.914;13.858;2023-05-10T14:45:24;4.05;;;2.75;;
36189;SDS011;22232;50.914;13.858;2023-05-10T14:47:52;4.07;;;3.00;;
36189;SDS011;22232;50.914;13.858;2023-05-10T14:50:19;4.13;;;2.72;;
36189;SDS011;22232;50.914;13.858;2023-05-10T14:53:02;4.93;;;2.90;;
36189;SDS011;22232;50.914;13.858;2023-05-10T14:55:30;4.18;;;2.50;;
36189;SDS011;22232;50.914;13.858;2023-05-10T14:57:58;4.60;;;3.20;;
36189;SDS011;22232;50.914;13.858;2023-05-10T15:00:26;4.07;;;3.00;;
36189;SDS011;22232;50.914;13.858;2023-05-10T15:02:55;4.05;;;2.80;;
36189;SDS011;22232;50.914;13.858;2023-05-10T15:05:23;5.60;;;3.25;;
36189;SDS011;22232;50.914;13.858;2023-05-10T15:07:51;3.75;;;3.10;;
36189;SDS011;22232;50.914;13.858;2023-05-10T15:10:19;5.30;;;2.83;;
36189;SDS011;22232;50.914;13.858;2023-05-10T15:12:46;3.88;;;2.95;;
36189;SDS011;22232;50.914;13.858;2023-05-10T15:15:14;7.95;;;3.38;;
36189;SDS011;22232;50.914;13.858;2023-05-10T15:17:42;2.92;;;2.50;;
36189;SDS011;22232;50.914;13.858;2023-05-10T15:20:10;5.13;;;2.85;;
36189;SDS011;22232;50.914;13.858;2023-05-10T15:22:38;2.58;;;2.38;;
36189;SDS011;22232;50.914;13.858;2023-05-10T15:25:05;2.67;;;2.47;;
36189;SDS011;22232;50.914;13.858;2023-05-10T15:27:34;4.93;;;2.80;;
36189;SDS011;22232;50.914;13.858;2023-05-10T15:30:02;5.78;;;3.13;;